Date,TemperatureHighF,TemperatureAvgF,TemperatureLowF,DewpointHighF,DewpointAvgF,DewpointLowF,HumidityHigh,HumidityAvg,HumidityLow,PressureMaxIn,PressureMinIn,WindSpeedMaxMPH,WindSpeedAvgMPH,GustSpeedMaxMPH,PrecipitationSumIn
2013-1-1,43.0,39.1,33.0,28.8,25.7,19.5,67,59,46,29.15,29.06,12,1,12,0.00
2013-1-2,37.0,34.3,31.0,27.1,22.9,19.5,67,63,60,29.20,29.13,10,1,12,0.00
2013-1-4,35.0,33.8,33.0,18.7,18.1,17.3,54,52,50,29.26,29.25,8,0,8,0.00
2013-1-5,46.0,37.4,30.0,23.7,19.9,17.0,65,50,35,29.44,29.23,13,1,13,0.00
2013-1-8,40.0,35.1,32.0,32.1,30.7,28.8,94,84,69,29.44,29.42,0,0,0,0.00
2013-1-9,50.0,39.3,28.0,42.4,35.1,28.0,100,86,45,29.46,29.33,12,0,12,0.00
2013-1-10,59.0,48.0,41.0,31.2,27.0,23.3,59,45,27,29.63,29.46,15,1,15,0.00
2013-1-11,46.0,41.4,35.0,43.0,34.4,25.7,100,78,54,29.54,29.22,9,0,9,0.06
2013-1-12,63.0,46.8,41.0,49.0,43.9,41.0,100,91,56,29.29,29.22,7,0,7,0.00
2013-1-13,56.0,48.3,42.0,56.0,48.3,42.0,100,100,100,29.26,29.14,7,0,9,0.00
2013-1-14,58.0,52.8,39.0,58.0,46.7,34.3,100,81,58,29.38,29.12,19,2,20,0.12
2013-1-15,39.0,38.6,37.0,39.0,38.5,36.7,100,100,96,29.41,29.30,12,1,12,0.31
2013-1-17,38.0,37.2,37.0,29.4,28.9,28.8,72,72,70,29.20,29.18,5,1,6,0.02
2013-1-18,41.0,33.8,28.0,29.5,16.4,5.8,74,51,27,29.52,29.16,22,2,23,0.00
2013-1-19,58.0,42.2,30.0,28.0,24.6,19.7,75,52,29,29.45,29.11,15,2,15,0.00
2013-1-20,60.0,45.8,35.0,29.6,19.8,4.6,59,38,17,29.19,29.02,19,3,20,0.00
2013-1-21,48.0,35.4,29.0,25.2,16.6,8.8,56,46,35,29.20,28.98,19,2,20,0.00
2013-1-22,29.0,19.6,14.0,10.4,-2.2,-7.7,51,38,25,29.35,29.06,19,4,20,0.00
2013-1-23,26.0,18.6,11.0,6.1,0.2,-5.1,77,46,27,29.40,29.23,13,1,15,0.00
2013-1-24,29.0,19.9,14.0,17.8,8.4,-2.1,100,65,28,29.53,29.19,21,2,25,0.00
2013-1-25,22.0,18.5,14.0,18.8,8.1,-1.8,99,66,35,29.52,29.18,12,0,12,0.00
2013-1-26,37.0,26.8,21.0,22.4,20.0,17.3,95,76,47,29.46,29.20,13,1,16,0.04
2013-1-27,44.0,29.9,21.0,23.0,18.1,13.1,100,65,31,29.61,29.46,9,0,9,0.00
2013-1-28,43.0,35.5,31.0,43.0,32.9,20.2,100,91,64,29.52,29.18,11,1,12,0.19
2013-1-29,43.0,39.2,37.0,43.0,39.2,37.0,100,100,100,29.22,29.18,0,0,2,0.00
2013-1-30,69.0,62.9,56.0,64.0,59.2,56.0,100,89,71,29.04,28.56,19,3,19,0.90
2013-1-31,62.0,42.9,28.0,62.0,26.1,11.2,100,54,30,29.06,28.51,25,5,26,0.55
2013-2-3,31.0,30.6,30.0,19.5,16.9,14.0,62,57,52,29.09,29.07,15,5,15,0.03
2013-2-4,38.0,29.9,22.0,20.4,14.1,8.5,67,52,37,29.21,29.06,18,2,18,0.00
2013-2-5,34.0,30.9,29.0,25.6,22.1,18.3,79,70,56,29.06,29.01,2,0,2,0.00
2013-2-8,37.0,35.2,34.0,23.4,22.0,20.4,60,58,57,29.07,29.04,22,8,25,0.22
2013-2-9,43.0,33.2,25.0,21.6,16.1,11.9,64,50,32,29.44,29.06,27,5,29,0.20
2013-2-10,49.0,33.1,17.0,26.9,16.4,9.5,100,56,22,29.53,29.33,12,1,12,0.00
2013-2-11,52.0,41.6,36.0,52.0,40.7,25.9,100,97,64,29.33,28.97,10,0,10,0.24
2013-2-16,33.0,31.9,30.0,18.6,16.2,14.5,56,52,49,29.03,29.00,16,4,16,0.01
2013-2-17,30.0,25.7,22.0,16.6,8.6,3.0,61,48,33,29.28,29.00,20,4,20,0.00
2013-2-18,49.0,31.0,18.0,15.5,7.6,3.4,63,39,17,29.43,29.26,13,2,14,0.00
2013-2-19,44.0,39.0,35.0,43.5,30.5,15.1,100,74,42,29.27,28.94,16,1,16,0.12
2013-2-20,39.0,30.9,23.0,15.1,11.1,7.1,51,44,32,29.26,29.11,25,5,25,0.00
2013-2-21,40.0,28.9,22.0,16.3,12.3,7.6,62,51,32,29.38,29.23,20,3,20,0.00
2013-2-22,33.0,30.5,28.0,32.0,22.8,14.8,100,75,53,29.43,29.30,15,1,15,0.04
2013-2-23,35.0,32.6,32.0,35.0,32.6,32.0,100,100,100,29.30,29.15,4,0,6,0.03
2013-2-26,44.0,42.9,42.0,44.0,42.9,42.0,100,100,100,28.94,28.83,16,4,17,0.98
2013-2-27,58.0,46.3,38.0,44.0,37.3,30.2,100,75,43,28.92,28.77,16,2,16,0.02
2013-2-28,48.0,42.5,39.0,39.4,28.2,0.0,94,58,37,28.94,28.86,14,2,14,0.02
2013-3-3,40.0,33.8,29.0,17.8,16.4,14.9,57,49,37,29.06,28.99,18,4,18,0.00
2013-3-4,44.0,33.8,27.0,16.9,14.8,11.7,63,47,31,29.16,29.06,19,4,23,0.00
2013-3-6,39.0,36.7,34.0,38.0,35.4,31.4,100,95,77,29.14,28.87,32,6,32,1.35
2013-3-7,51.0,41.7,35.0,32.4,26.5,21.6,79,57,35,29.26,29.14,23,4,30,0.04
2013-3-8,51.0,41.7,35.0,27.8,25.2,20.5,72,53,35,29.36,29.24,29,6,29,0.00
2013-3-11,56.0,56.0,56.0,47.4,47.2,46.7,73,72,71,29.17,29.16,11,3,13,0.00
2013-3-12,55.0,46.4,42.0,38.1,31.8,28.7,62,57,50,29.12,29.03,20,4,22,0.78
2013-3-13,42.0,38.6,35.0,28.7,27.7,26.5,74,65,59,29.12,29.10,8,1,13,0.00
2013-3-17,39.0,38.8,38.0,28.4,24.7,23.7,68,57,54,29.35,29.30,7,0,7,0.00
2013-3-21,33.0,29.3,27.0,8.5,7.0,5.2,45,38,32,29.05,28.98,20,3,20,0.00
2013-3-22,48.0,38.6,27.0,18.2,14.4,8.5,54,38,27,29.14,29.04,19,3,19,0.00
2013-3-23,55.0,39.7,24.0,23.5,20.1,16.3,83,49,27,29.19,29.10,22,2,22,0.00
2013-3-24,44.0,36.2,27.0,33.0,22.4,17.6,100,60,37,29.14,28.88,12,1,12,0.02
2013-3-25,37.0,34.6,32.0,37.0,34.6,32.0,100,100,100,28.90,28.76,7,0,8,0.56
2013-3-26,40.0,33.2,31.0,39.0,33.1,31.0,100,100,85,29.03,28.90,15,1,15,0.02
2013-4-2,40.0,39.6,38.0,11.0,10.4,10.0,32,30,29,29.28,29.26,15,3,15,0.00
2013-4-3,53.0,38.8,23.0,28.8,14.0,6.7,87,41,18,29.44,29.28,22,3,22,0.00
2013-4-4,52.0,37.8,22.0,36.2,17.3,8.7,94,50,19,29.47,29.22,12,1,12,0.08
2013-4-5,67.0,49.8,37.0,42.0,30.0,18.1,100,57,21,29.22,29.05,18,2,20,0.19
2013-4-6,63.0,48.0,36.0,29.7,19.0,12.0,57,33,16,29.42,29.20,16,2,16,0.00
2013-4-7,71.0,54.6,39.0,39.2,33.0,26.5,78,47,27,29.37,29.18,16,2,17,0.00
2013-4-8,83.0,67.1,49.0,45.7,41.4,38.2,75,42,22,29.29,29.17,12,0,12,0.00
2013-4-10,92.0,82.3,62.0,53.6,50.3,47.4,66,35,24,29.20,29.06,12,0,13,0.00
2013-4-11,57.0,56.5,56.0,55.0,54.4,53.6,94,93,91,29.04,29.03,17,5,17,0.01
2013-4-12,75.0,59.1,51.0,69.1,57.8,51.0,100,96,71,29.04,28.86,18,3,18,0.68
2013-4-13,71.0,56.3,41.0,54.0,38.9,32.7,100,57,27,29.13,28.98,18,2,21,0.00
2013-4-14,71.0,55.6,40.0,46.7,37.7,31.8,100,57,27,29.29,29.12,14,1,14,0.00
2013-4-15,63.0,58.0,53.0,53.7,46.2,38.4,94,66,48,29.40,29.28,13,2,16,0.00
2013-4-16,78.0,63.5,54.0,59.7,53.2,46.0,89,71,45,29.44,29.29,14,1,15,0.00
2013-4-17,79.0,66.4,57.0,66.0,57.8,52.5,100,76,47,29.38,29.27,15,1,15,0.01
2013-4-18,77.0,65.2,57.0,66.9,58.1,54.4,100,80,49,29.38,29.19,15,2,17,0.07
2013-4-19,77.0,66.4,49.0,68.5,61.0,49.0,100,85,58,29.21,28.88,17,2,19,0.84
2013-4-20,63.0,52.2,45.0,49.0,29.2,22.2,100,45,24,29.42,29.00,20,3,20,0.01
2013-4-21,60.0,47.2,37.0,31.4,22.7,16.7,61,39,23,29.63,29.42,17,2,19,0.00
2013-4-22,60.0,46.7,32.0,38.4,33.3,30.1,98,62,36,29.61,29.48,21,2,21,0.00
2013-4-25,70.0,57.4,48.0,39.6,30.1,23.7,65,37,22,29.42,29.34,20,1,20,0.01
2013-4-26,70.0,54.2,39.0,40.6,34.2,28.2,96,52,24,29.54,29.39,16,1,16,0.00
2013-4-27,77.0,57.4,39.0,47.3,36.8,31.0,100,52,21,29.52,29.40,11,0,12,0.00
2013-4-28,67.0,56.6,43.0,54.8,40.5,31.9,98,58,29,29.41,29.29,13,1,13,0.02
2013-4-29,59.0,55.3,52.0,59.0,54.2,40.9,100,97,57,29.30,29.22,16,1,16,0.28
2013-4-30,55.0,54.0,54.0,55.0,54.0,54.0,100,100,100,29.29,29.24,12,1,12,0.02
2013-5-8,75.0,62.3,54.0,62.0,55.3,48.2,100,81,42,29.22,29.14,13,0,13,0.01
2013-5-9,77.0,61.9,54.0,68.5,57.4,52.8,100,88,45,29.19,29.11,9,0,10,0.01
2013-5-10,87.0,69.0,52.0,67.7,56.8,50.9,100,72,30,29.24,29.10,16,0,18,0.01
2013-5-11,79.0,66.3,62.0,70.5,63.5,56.3,100,92,51,29.13,28.98,13,0,13,0.01
2013-5-12,66.0,58.7,45.0,63.0,40.0,24.9,100,56,24,29.19,28.98,18,2,23,0.01
2013-5-13,63.0,50.2,38.0,43.8,27.6,19.0,96,46,21,29.28,29.17,18,1,18,0.00
2013-5-14,41.0,35.6,32.0,40.0,32.4,26.5,100,89,56,29.32,29.28,0,0,2,0.00
2013-5-18,62.0,59.8,58.0,59.6,58.6,57.4,100,96,90,29.36,29.34,12,1,12,0.00
2013-5-19,76.0,66.9,58.0,69.8,65.1,57.7,100,94,72,29.37,29.27,12,1,12,0.00
2013-5-20,87.0,71.8,64.0,71.8,66.5,61.8,100,86,47,29.31,29.19,7,0,9,0.00
2013-5-21,88.0,73.9,66.0,71.2,67.9,63.5,100,84,50,29.24,29.12,9,0,9,0.01
2013-5-22,90.0,76.8,66.0,73.5,68.4,61.8,99,78,44,29.20,29.09,12,0,13,0.00
2013-5-23,82.0,71.2,63.0,70.5,66.5,62.2,100,87,54,29.16,29.02,13,1,14,0.00
2013-5-24,63.0,56.4,48.0,62.7,48.2,33.0,100,76,49,29.29,28.99,22,2,28,0.03
2013-5-25,68.0,54.7,43.0,40.0,33.5,30.9,67,47,27,29.32,29.26,25,2,25,0.00
2013-5-26,73.0,58.8,44.0,42.4,35.5,30.4,81,45,23,29.36,29.28,18,1,21,0.00
2013-5-27,74.0,59.9,42.0,52.8,42.7,35.3,100,59,27,29.42,29.34,9,0,9,0.00
2013-5-28,77.0,63.6,56.0,66.4,57.9,48.6,99,83,51,29.34,29.25,7,0,12,0.14
2013-5-29,91.0,76.7,63.0,70.4,64.1,56.9,100,70,34,29.37,29.25,7,0,8,0.01
2013-5-30,93.0,78.6,65.0,69.1,63.4,58.5,98,63,35,29.43,29.29,8,0,9,0.00
2013-6-4,65.0,65.0,65.0,45.3,45.3,45.3,49,49,49,29.27,29.27,0,0,0,0.00
2013-6-5,84.0,74.3,66.0,55.4,51.8,46.5,60,46,31,29.36,29.25,12,1,12,0.00
2013-6-6,73.0,67.0,62.0,65.4,58.8,50.3,100,76,58,29.28,29.08,12,1,12,0.36
2013-6-7,69.0,67.3,64.0,69.0,67.1,63.7,100,99,96,29.09,28.88,13,1,14,1.87
2013-6-9,72.0,71.5,71.0,68.9,68.1,66.2,93,89,82,29.30,29.28,7,0,7,0.00
2013-6-10,78.0,70.3,68.0,76.8,69.3,66.8,99,97,91,29.29,29.04,10,0,11,1.46
2013-6-11,83.0,73.1,65.0,70.0,64.2,61.0,100,76,51,29.11,29.04,9,0,9,0.00
2013-6-12,90.0,77.9,64.0,71.8,65.5,60.0,100,69,38,29.16,29.06,6,0,6,0.00
2013-6-13,76.0,72.7,70.0,72.7,70.5,67.6,99,93,78,29.08,28.93,8,0,8,0.00
2013-6-23,78.0,74.1,72.0,73.0,71.4,69.4,100,92,75,29.31,29.29,2,0,2,0.40
2013-6-24,89.0,77.6,69.0,76.0,69.8,63.4,100,79,51,29.34,29.25,11,0,11,0.00
2013-6-29,89.0,85.0,79.0,62.1,60.1,55.9,51,43,37,28.98,28.92,7,0,8,0.00
2013-7-1,76.0,75.5,74.0,75.4,74.7,72.5,98,98,96,29.22,29.19,8,1,9,0.15
2013-7-2,82.0,74.7,72.0,76.8,72.2,69.2,98,92,74,29.36,29.20,10,1,10,0.06
2013-7-3,82.0,74.3,70.0,79.8,72.3,67.2,98,94,90,29.42,29.34,7,0,8,0.79
2013-7-4,90.0,79.2,73.0,77.4,72.1,64.9,99,81,48,29.46,29.36,10,1,10,0.10
2013-7-5,89.0,81.6,75.0,76.4,72.1,66.7,98,75,49,29.45,29.33,11,1,11,0.00
2013-7-6,93.0,84.7,77.0,77.5,70.0,65.1,96,63,44,29.42,29.29,10,0,10,0.00
2013-7-7,91.0,84.9,69.0,75.4,70.2,64.7,98,63,48,29.35,29.24,17,1,17,0.17
2013-7-12,71.0,68.9,66.0,70.0,67.9,62.9,100,97,92,29.25,29.17,14,1,14,3.04
2013-7-13,73.0,70.9,68.0,72.1,70.1,65.6,100,97,92,29.45,29.23,5,0,9,0.01
2013-7-14,93.0,83.0,73.0,79.4,70.7,64.8,99,69,42,29.55,29.44,8,0,8,0.01
2013-7-15,91.0,81.2,71.0,78.1,73.4,67.3,99,79,48,29.52,29.38,7,0,7,0.00
2013-7-16,95.0,82.2,75.0,79.1,70.3,62.1,99,72,35,29.45,29.37,9,0,9,0.00
2013-7-17,97.0,86.0,73.0,79.1,70.3,61.8,98,63,37,29.45,29.31,10,0,10,0.00
2013-7-18,94.0,84.4,75.0,78.8,75.2,70.8,98,76,49,29.32,29.24,7,0,8,0.00
2013-7-19,94.0,85.4,77.0,79.4,75.8,70.6,97,76,47,29.27,29.15,12,1,12,0.00
2013-7-21,95.0,81.6,74.0,77.1,70.9,65.5,97,73,41,29.20,29.12,9,0,9,0.03
2013-7-22,89.0,77.2,72.0,77.1,72.0,66.9,95,84,51,29.16,29.04,9,1,12,0.03
2013-7-23,86.0,77.2,71.0,75.8,67.7,63.9,99,75,50,29.04,28.96,10,0,12,0.01
2013-7-24,86.0,75.6,67.0,71.7,65.1,55.7,99,73,44,29.14,28.96,11,1,12,0.00
2013-7-25,81.0,68.6,61.0,62.9,54.2,49.4,81,61,42,29.23,29.14,15,3,16,0.00
2013-8-1,85.0,72.6,68.0,75.1,68.5,63.6,97,87,63,29.14,29.07,4,0,5,0.26
2013-8-2,87.0,77.2,64.0,72.2,63.5,57.2,100,66,38,29.21,29.09,12,0,12,0.00
2013-8-3,76.0,68.5,64.0,65.9,63.8,60.4,95,85,71,29.19,29.13,0,0,1,0.08
2013-8-4,82.0,70.9,60.0,69.1,55.0,48.1,100,62,34,29.22,29.18,11,1,19,0.01
2013-8-5,85.0,69.4,56.0,64.0,56.5,47.4,100,68,29,29.29,29.22,8,0,9,0.00
2013-8-6,71.0,68.1,64.0,70.1,66.8,62.2,98,96,88,29.27,29.22,7,0,7,0.03
2013-8-7,85.0,75.4,68.0,74.5,70.9,65.3,96,87,61,29.27,29.22,11,0,11,0.00
2013-8-8,78.0,75.7,72.0,76.4,73.3,68.6,97,92,81,29.25,29.20,10,0,10,0.06
2013-8-9,79.0,76.1,74.0,77.4,73.4,69.9,96,92,87,29.20,29.15,9,1,9,0.00
2013-8-15,85.0,72.2,59.0,58.3,49.5,42.2,97,48,26,29.35,29.29,8,1,13,0.00
2013-8-16,82.0,66.5,54.0,63.9,54.5,48.1,98,70,34,29.35,29.29,10,0,10,0.00
2013-8-17,73.0,58.6,54.0,64.3,55.2,51.4,97,89,61,29.41,29.34,15,0,15,0.00
2013-8-27,76.0,75.3,75.0,75.7,75.0,74.4,99,99,98,29.15,29.15,0,0,0,0.00
2013-8-28,75.0,72.3,71.0,74.7,70.4,66.2,99,94,81,29.15,29.10,6,0,7,0.01
2013-9-1,96.0,85.6,77.0,76.4,69.6,64.1,96,62,38,29.10,29.04,4,0,9,0.00
2013-9-2,94.0,78.1,68.0,77.5,69.0,60.5,98,76,40,29.08,29.01,10,0,12,0.08
2013-9-3,88.0,75.7,67.0,75.4,60.2,51.7,98,62,33,29.18,29.00,16,1,16,0.09
2013-9-4,87.0,69.1,55.0,62.4,53.9,44.1,98,65,24,29.28,29.17,12,0,12,0.00
2013-9-6,58.0,56.9,56.0,55.2,54.1,52.5,97,90,82,29.31,29.30,0,0,0,0.00
2013-9-7,83.0,66.0,51.0,66.8,56.9,48.8,100,76,40,29.30,29.15,9,0,10,0.00
2013-9-8,89.0,73.9,63.0,68.4,62.3,55.0,99,71,40,29.25,29.13,12,1,15,0.01
2013-9-9,82.0,70.5,62.0,71.7,56.4,45.6,99,62,46,29.37,29.25,15,1,15,0.00
2013-9-10,93.0,79.1,71.0,76.5,70.1,65.3,99,77,43,29.36,29.30,9,0,9,0.00
2013-9-19,83.0,71.6,60.0,60.4,55.4,50.8,97,60,35,29.33,29.25,9,0,9,0.00
2013-9-20,83.0,66.5,53.0,64.2,57.3,50.4,99,76,42,29.26,29.18,10,0,10,0.00
2013-9-21,76.0,65.7,60.0,67.5,61.2,54.8,100,87,56,29.18,28.95,13,1,13,1.18
2013-9-22,76.0,62.7,51.0,63.1,51.8,46.0,100,70,41,29.14,28.98,15,1,15,0.01
2013-9-23,73.0,57.0,47.0,52.4,46.1,39.9,100,71,34,29.26,29.13,13,1,14,0.00
2013-9-24,78.0,55.8,41.0,51.5,46.1,40.2,100,76,32,29.27,29.14,13,1,13,0.00
2013-9-25,79.0,57.9,45.0,56.2,47.4,36.5,100,76,24,29.18,29.10,12,0,12,0.00
2013-9-26,79.0,61.2,51.0,59.7,51.8,47.8,100,76,34,29.24,29.12,11,0,11,0.00
2013-9-27,73.0,60.8,51.0,65.0,55.9,48.9,100,86,53,29.38,29.23,9,0,9,0.00
2013-9-28,69.0,60.0,54.0,59.0,55.1,50.7,100,86,55,29.44,29.36,13,1,13,0.00
2013-10-5,69.0,65.6,63.0,61.1,59.5,57.7,84,81,76,29.28,29.26,0,0,0,0.00
2013-10-6,78.0,74.1,72.0,70.8,67.9,62.5,96,82,59,29.17,29.15,9,1,12,0.00
2013-10-7,73.0,64.7,55.0,72.1,61.8,48.2,100,91,75,29.22,29.04,26,1,31,1.39
2013-10-8,69.0,55.7,45.0,54.0,47.8,42.5,100,78,42,29.40,29.22,14,1,15,0.00
2013-10-9,61.0,55.2,52.0,55.7,51.2,47.0,100,87,65,29.43,29.34,20,2,22,0.16
2013-10-10,54.0,53.0,53.0,52.4,52.1,51.6,98,97,95,29.34,29.29,12,2,13,0.02
2013-10-11,61.0,61.0,61.0,56.4,56.1,55.8,85,84,84,29.19,29.17,12,1,12,1.98
2013-10-12,67.0,61.6,59.0,65.0,58.9,54.5,100,91,82,29.31,29.17,15,2,19,0.20
2013-10-13,60.0,59.1,58.0,55.4,54.4,53.2,91,84,82,29.38,29.30,17,3,17,0.02
2013-10-17,69.0,62.3,59.0,67.5,60.5,56.4,100,94,85,29.04,29.00,12,1,12,0.12
2013-10-18,70.0,56.7,45.0,59.0,46.0,38.4,100,72,33,29.21,29.05,15,1,15,0.00
2013-10-19,45.0,43.9,43.0,44.5,43.1,41.7,98,97,95,29.16,29.14,0,0,0,0.00
2013-10-21,54.0,53.6,53.0,49.5,48.8,47.3,88,84,81,29.17,29.14,6,0,6,0.00
2013-10-22,67.0,53.3,43.0,56.0,47.7,40.4,100,83,49,29.14,29.04,11,0,11,0.00
2013-10-23,60.0,50.7,44.0,45.9,35.7,29.7,96,59,34,29.04,28.91,13,1,16,0.00
2013-10-24,54.0,44.5,34.0,35.7,29.0,22.3,100,58,36,29.25,29.17,16,1,21,0.00
2013-10-25,58.0,41.4,31.0,35.7,32.2,27.2,100,75,34,29.39,29.24,15,1,16,0.00
2013-10-28,70.0,52.6,34.0,49.0,39.3,33.5,100,67,29,29.38,29.28,9,0,9,0.00
2013-10-29,69.0,49.4,34.0,49.0,40.5,34.0,100,77,34,29.48,29.36,8,0,8,0.00
2013-10-30,69.0,55.3,46.0,60.0,52.0,46.0,100,89,66,29.42,29.31,8,0,9,0.06
2013-10-31,67.0,61.1,53.0,64.0,58.1,49.8,99,90,80,29.32,29.02,11,1,12,0.01
2013-11-1,78.0,67.1,60.0,67.4,62.7,53.8,98,86,49,29.01,28.87,17,2,17,0.19
2013-11-2,70.0,63.4,52.0,50.9,45.6,41.6,87,56,39,28.97,28.94,13,1,14,0.00
2013-11-3,45.0,42.0,40.0,23.5,22.5,20.9,49,46,42,29.51,29.45,11,1,12,0.00
2013-11-4,46.0,36.9,31.0,23.0,21.4,17.6,72,54,33,29.65,29.50,11,1,11,0.00
2013-11-10,36.0,36.0,36.0,21.4,21.4,21.4,55,55,55,29.62,29.62,0,0,0,0.00
2013-11-12,30.0,29.5,29.0,15.8,15.6,14.8,57,56,54,29.43,29.43,2,0,2,0.00
2013-11-13,46.0,34.2,26.0,20.6,18.0,13.4,68,53,32,29.52,29.42,16,1,19,0.00
2013-11-14,61.0,40.0,22.0,31.0,20.4,12.5,100,56,17,29.44,29.32,9,0,9,0.00
2013-11-17,60.0,59.4,59.0,56.7,56.2,55.1,92,89,87,29.02,28.98,11,2,13,0.01
2013-11-18,69.0,59.9,50.0,58.7,35.8,19.2,100,48,16,29.12,28.94,21,3,21,0.12
2013-11-19,49.0,44.0,37.0,25.8,23.9,21.4,61,45,37,29.43,29.11,25,3,25,0.00
2013-11-20,37.0,33.8,31.0,30.5,23.2,20.8,98,65,53,29.57,29.43,9,0,13,0.00
2013-11-21,50.0,41.7,27.0,42.6,34.9,27.0,100,79,56,29.59,29.46,5,0,6,0.00
2013-11-22,62.0,53.1,45.0,55.9,48.9,39.8,100,86,63,29.46,29.17,6,0,6,0.00
2013-11-23,59.0,46.9,32.0,55.4,30.3,15.4,88,55,33,29.26,29.18,20,4,20,0.00
2013-11-24,26.0,23.8,21.0,8.3,7.0,5.6,56,48,43,29.53,29.48,11,1,11,0.00
2013-11-25,39.0,28.3,17.0,13.1,8.1,0.8,74,45,22,29.58,29.40,10,1,12,0.00
2013-11-26,43.0,34.9,32.0,41.1,28.3,9.8,100,81,36,29.40,28.83,16,1,17,1.65
2013-11-27,39.0,36.1,28.0,39.0,33.1,13.1,100,90,53,29.15,28.76,19,4,20,0.69
2013-11-28,40.0,29.7,23.0,25.6,15.1,9.8,97,56,32,29.50,29.16,19,2,19,0.00
2013-11-29,44.0,31.7,21.0,29.0,19.4,15.6,100,64,34,29.69,29.48,16,1,16,0.00
2013-11-30,40.0,28.4,22.0,21.5,18.4,15.2,90,67,39,29.70,29.55,8,0,9,0.00
2013-12-1,42.0,42.0,42.0,30.3,29.7,29.4,63,61,61,29.18,29.16,0,0,0,0.00
2013-12-2,49.0,43.6,40.0,41.1,35.9,29.4,86,74,63,29.16,29.06,6,0,6,0.00
2013-12-3,60.0,46.3,38.0,43.0,37.5,33.4,100,74,40,29.14,29.06,8,0,9,0.00
2013-12-4,52.0,51.2,51.0,52.0,51.2,51.0,100,100,100,29.23,29.22,6,0,6,0.00
2013-12-5,72.0,60.3,52.0,63.5,58.0,51.4,100,93,62,29.22,29.13,12,1,15,0.00
2013-12-6,64.0,51.2,37.0,59.7,48.2,36.7,100,90,77,29.29,29.09,16,2,19,0.49
2013-12-7,42.0,36.3,29.0,38.0,28.7,19.8,100,76,55,29.56,29.25,15,2,17,0.12
2013-12-8,31.0,27.8,26.0,31.0,24.6,18.5,100,89,67,29.59,29.35,15,1,15,0.17
2013-12-9,31.0,31.0,31.0,31.0,31.0,31.0,100,100,100,29.37,29.28,2,0,4,0.18
2013-12-10,27.0,25.6,24.0,26.0,24.4,21.8,100,96,84,29.31,29.29,1,0,3,0.08
2013-12-11,43.0,28.8,18.0,26.0,19.8,11.6,100,75,32,29.46,29.30,10,0,11,0.08
2013-12-12,33.0,26.7,19.0,22.0,12.2,5.0,100,56,33,29.47,29.32,11,2,17,0.00
2013-12-13,42.0,31.7,21.0,24.9,16.7,9.9,81,57,30,29.38,29.30,9,1,14,0.00
2013-12-14,39.0,34.9,30.0,36.0,29.9,22.3,100,83,62,29.39,28.91,12,2,16,0.29
2013-12-15,47.0,37.4,27.0,42.0,29.8,20.2,100,77,48,29.09,28.84,13,2,21,0.01
2013-12-16,36.0,34.0,30.0,26.1,23.1,19.9,82,64,56,29.27,29.08,6,1,13,0.00
2013-12-17,34.0,33.5,33.0,31.1,30.4,29.8,91,88,86,29.12,29.12,2,0,2,0.00
2013-12-18,33.0,29.6,27.0,32.7,29.5,27.0,100,99,91,29.21,29.12,5,0,5,0.00
2013-12-20,56.0,55.4,55.0,42.6,41.5,40.9,63,59,58,29.20,29.18,2,0,2,0.00
2013-12-21,55.0,53.3,52.0,48.3,43.3,40.0,81,69,59,29.19,29.16,10,0,12,0.00
2013-12-23,62.0,49.6,38.0,56.4,41.8,24.9,100,75,59,29.33,29.12,20,4,23,0.78
2013-12-24,40.0,31.7,21.0,25.9,17.2,4.6,77,56,38,29.50,29.29,19,3,21,0.00
2013-12-25,25.0,19.4,17.0,12.7,9.4,7.8,73,65,57,29.58,29.50,9,1,12,0.00
2013-12-27,53.0,38.2,24.0,30.0,21.5,13.8,100,56,25,29.50,29.38,11,0,12,0.00
2013-12-28,28.0,26.1,24.0,27.0,25.0,21.9,100,96,81,29.39,29.35,0,0,0,0.00
2013-12-29,45.0,41.0,39.0,42.7,40.5,38.0,100,98,86,29.00,28.99,2,0,4,1.26
2013-12-30,45.0,38.3,34.0,44.0,36.7,31.2,100,95,64,29.20,29.00,18,1,18,0.00